Big Bend, Wisconsin
Current Conditions -  °F | °C
As of 5:45 PM on Thursday 18 Dec 2014 (Local Time) from KUES Reporting Station
Haze Haze  
Wind Chill: 18°   Ceiling: 800
Heat Index: 25°   Visibility: 5mi
Dew Point: 23°   Wind: 6mph
Humidity: 93%   Direction: 320°NW
Pressure: 30.25"   Gusts: NA
Location:  42.88°N, 88.21°W
Report Text: KUES 182345Z 32005KT 5SM BR OVC008 M04/M05 A3025
Loading
Personal Weather Stations






























Interactive Weather Map New forecast layout! Learn more

10-Day Weather Forecast

Advertisements
Track Severe Weather on mobile